Latest Weather Observations for Canberra

IDN60801

Issued at 3:52 pm EST Sunday 15 September 2019 (issued every 10 minutes, with the page automatically refreshed every 10 minutes)

About weather observations | Map of weather stations | Latest weather observations for NSW | Other Formats
Station Details ID: 070351 Name: CANBERRA AIRPORT Lat: -35.31 Lon: 149.20 Height: 577.05 m
Data from the previous 72 hours. | See also: Recent months at Canberra
Date/Time
EST
Temp
°C
App
Temp
°C
Dew
Point
°C
Rel
Hum
%
Delta-T
°C
Wind Press
QNH
hPa
Press
MSL
hPa
Rain since
9am
mm
Dir  Spd
km/h
Gust
km/h
Spd
kts
Gust
kts
15/03:30pm 22.7 15.2 -4.4 16 11.6 NW 26 41 14 22 1019.3 1019.5 0.0
15/03:00pm 22.9 14.4 -3.4 17 11.5 NNW 32 39 17 21 1019.6 1019.8 0.0
15/02:30pm 23.2 15.9 -3.2 17 11.6 WNW 26 37 14 20 1020.0 1020.1 0.0
15/02:00pm 23.0 15.0 -2.6 18 11.3 NW 30 37 16 20 1020.3 1020.4 0.0
15/01:30pm 22.2 15.2 -3.2 18 11.1 NNW 24 33 13 18 1020.7 1020.9 0.0
15/01:00pm 21.5 14.7 -1.7 21 10.3 NNW 24 35 13 19 1021.2 1021.4 0.0
15/12:30pm 20.9 14.6 -4.3 18 10.6 NW 20 28 11 15 1021.7 1021.8 0.0
15/12:00pm 20.0 14.5 -5.8 17 10.4 NNW 15 20 8 11 1021.9 1022.1 0.0
15/11:30am 20.0 13.3 -8.3 14 10.9 NW 20 26 11 14 1022.2 1022.4 0.0
15/11:00am 19.4 13.2 -4.8 19 9.9 NW 19 26 10 14 1022.8 1023.0 0.0
15/10:30am 17.0 13.5 1.4 35 7.1 NNW 9 11 5 6 1023.1 1023.3 0.0
15/10:00am 14.0 11.4 1.0 41 5.7 W 4 9 2 5 1023.7 1023.9 0.0
15/09:30am 12.8 9.9 1.2 45 5.1 WNW 6 11 3 6 1024.0 1024.2 0.0
15/09:00am 11.1 8.5 1.1 50 4.3 NNW 4 7 2 4 1024.2 1024.4 0.0
15/08:30am 10.2 7.3 1.3 54 3.8 ESE 6 7 3 4 1024.3 1024.5 0.0
15/08:00am 8.0 4.5 1.0 61 2.9 S 9 11 5 6 1024.5 1024.7 0.0
15/07:30am 4.6 1.4 0.9 77 1.5 NNW 7 9 4 5 1024.1 1024.3 0.0
15/07:00am 2.4 0.4 0.1 85 0.9 CALM 0 4 0 2 1024.1 1024.3 0.0
15/06:30am 0.4 -3.5 -1.5 87 0.7 NNW 9 11 5 6 1023.7 1023.9 0.0
15/06:00am 0.2 -2.8 -2.0 85 0.8 ESE 4 9 2 5 1023.6 1023.8 0.0
15/05:30am 1.2 -0.9 -0.6 88 0.7 CALM 0 6 0 3 1023.4 1023.7 0.0
15/05:00am 0.1 -3.5 -1.8 87 0.7 N 7 11 4 6 1023.4 1023.7 0.0
15/04:30am 1.7 -2.1 -0.4 86 0.8 SE 9 11 5 6 1022.9 1023.1 0.0
15/04:00am 0.4 -2.9 -1.3 88 0.6 NNE 6 9 3 5 1022.9 1023.1 0.0
15/03:30am 0.5 -3.4 -1.3 88 0.7 NNW 9 13 5 7 1022.8 1023.0 0.0
15/03:00am 1.2 -2.3 -1.2 84 0.9 SSE 7 9 4 5 1023.0 1023.2 0.0
15/02:30am 1.9 -0.3 -1.2 80 1.1 CALM 0 0 0 0 1022.8 1023.0 0.0
15/02:00am 2.5 -0.3 -0.6 80 1.2 E 4 7 2 4 1022.9 1023.1 0.0
15/01:30am 2.5 -0.4 -0.9 78 1.3 ESE 4 7 2 4 1023.6 1023.8 0.0
15/01:00am 2.7 0.2 -1.3 75 1.5 ESE 2 7 1 4 1023.7 1023.9 0.0
15/12:30am 3.8 1.8 0.0 76 1.5 CALM 0 7 0 4 1023.7 1023.9 0.0
15/12:00am 3.5 1.4 -1.1 72 1.7 CALM 0 0 0 0 1023.7 1023.9 0.0
 
Date/Time
EST
Temp
°C
App
Temp
°C
Dew
Point
°C
Rel
Hum
%
Delta-T
°C
Wind Press
QNH
hPa
Press
MSL
hPa
Rain since
9am
mm
Dir  Spd
km/h
Gust
km/h
Spd
kts
Gust
kts
14/11:30pm 4.9 1.6 0.3 72 1.8 NE 7 11 4 6 1023.8 1024.0 0.0
14/11:00pm 3.6 0.3 -1.5 69 1.9 NE 6 7 3 4 1023.8 1024.0 0.0
14/10:30pm 5.9 3.9 -0.2 65 2.4 CALM 0 0 0 0 1024.0 1024.2 0.0
14/10:00pm 7.1 5.2 0.5 63 2.7 CALM 0 0 0 0 1023.9 1024.1 0.0
14/09:30pm 7.5 4.4 0.3 60 2.9 NE 6 7 3 4 1023.8 1024.0 0.0
14/09:00pm 8.9 5.6 0.1 54 3.6 NE 7 11 4 6 1023.4 1023.7 0.0
14/08:30pm 11.1 7.2 1.1 50 4.3 NE 11 13 6 7 1023.4 1023.7 0.0
14/08:00pm 10.9 7.1 1.7 53 4.0 NNE 11 15 6 8 1023.1 1023.3 0.0
14/07:30pm 13.1 8.6 2.4 48 4.8 N 15 17 8 9 1022.8 1023.0 0.0
14/07:00pm 13.6 9.5 2.2 46 5.1 N 13 19 7 10 1022.4 1022.6 0.0
14/06:30pm 14.7 10.6 2.3 43 5.7 NNE 13 20 7 11 1022.1 1022.3 0.0
14/06:00pm 16.1 12.3 1.8 38 6.5 N 11 17 6 9 1021.7 1021.8 0.0
14/05:30pm 17.6 12.6 1.2 33 7.5 NNW 17 24 9 13 1021.4 1021.6 0.0
14/05:00pm 19.0 13.6 1.5 31 8.1 N 19 26 10 14 1021.3 1021.5 0.0
14/04:30pm 19.4 12.7 1.4 30 8.4 N 26 33 14 18 1021.1 1021.3 0.0
14/04:00pm 20.2 13.8 1.1 28 8.9 NNW 24 30 13 16 1021.0 1021.2 0.0
14/03:30pm 20.4 14.0 0.8 27 9.1 NNW 24 30 13 16 1021.1 1021.3 0.0
14/03:00pm 20.1 14.0 0.5 27 9.0 NNW 22 30 12 16 1021.1 1021.3 0.0
14/02:30pm 20.4 13.9 0.3 26 9.2 NNW 24 35 13 19 1021.3 1021.5 0.0
14/02:00pm 20.7 15.0 -0.6 24 9.6 NW 19 26 10 14 1021.4 1021.6 0.0
14/01:30pm 20.6 15.4 -2.5 21 10.1 WNW 15 30 8 16 1021.8 1021.9 0.0
14/01:00pm 19.8 14.0 -4.5 19 10.1 WNW 17 22 9 12 1022.1 1022.3 0.0
14/12:30pm 19.6 15.2 -2.1 23 9.5 NNW 11 20 6 11 1022.3 1022.5 0.0
14/12:00pm 19.0 14.8 -0.9 26 8.8 W 11 17 6 9 1022.7 1022.9 0.0
14/11:30am 17.5 13.3 -0.7 29 8.0 NNW 11 15 6 8 1023.1 1023.3 0.0
14/11:00am 16.5 12.6 -1.6 29 7.7 NNW 9 13 5 7 1023.4 1023.7 0.0
14/10:46am 16.4 13.0 -0.8 31 7.5 NNW 7 15 4 8 1023.6 1023.8 0.0
14/10:30am 15.9 12.5 -0.8 32 7.2 WNW 7 11 4 6 1023.7 1023.9 0.0
14/10:27am 16.1 12.7 -0.6 32 7.3 NNW 7 11 4 6 1023.7 1023.9 0.0
14/10:00am 14.7 11.4 0.2 37 6.3 W 7 9 4 5 1023.9 1024.1 0.0
14/09:30am 13.4 10.9 1.4 44 5.3 E 4 9 2 5 1024.3 1024.5 0.0
14/09:00am 12.1 10.4 1.7 49 4.6 CALM 0 7 0 4 1024.4 1024.6 0.0
14/08:30am 10.6 8.8 1.2 52 4.0 CALM 0 0 0 0 1024.3 1024.5 0.0
14/08:06am 8.8 6.5 0.5 56 3.5 W 2 6 1 3 1024.0 1024.2 0.0
14/08:00am 8.3 6.4 0.5 58 3.2 CALM 0 0 0 0 1024.0 1024.2 0.0
14/07:30am 5.8 3.7 -0.7 63 2.5 CALM 0 0 0 0 1023.8 1024.0 0.0
14/07:00am 2.2 -1.7 -1.6 76 1.4 SE 9 11 5 6 1023.2 1023.4 0.0
14/06:30am -0.3 -4.1 -3.5 79 1.1 SSE 7 11 4 6 1022.9 1023.1 0.0
14/06:00am 0.2 -3.4 -3.3 77 1.2 SSW 6 11 3 6 1022.6 1022.8 0.0
14/05:30am 0.2 -4.3 -3.5 76 1.3 SSE 11 13 6 7 1022.3 1022.5 0.0
14/05:00am 0.4 -2.5 -3.9 73 1.5 SE 2 9 1 5 1021.8 1021.9 0.0
14/04:30am 2.6 -1.4 -2.1 71 1.7 ESE 9 11 5 6 1021.4 1021.6 0.0
14/04:00am 2.4 -2.0 -2.7 69 1.8 SE 11 13 6 7 1021.1 1021.3 0.0
14/03:30am 4.6 0.7 -1.8 63 2.4 ESE 9 11 5 6 1020.9 1021.1 0.0
14/03:00am 7.0 3.1 -1.2 56 3.2 N 9 11 5 6 1020.8 1021.0 0.0
14/02:30am 8.3 4.9 -2.3 47 4.1 ENE 6 9 3 5 1021.1 1021.3 0.0
14/02:00am 9.9 5.6 -1.8 44 4.7 SE 11 20 6 11 1021.0 1021.2 0.0
14/01:30am 8.1 2.1 -3.4 44 4.3 NW 19 26 10 14 1021.0 1021.2 0.0
14/01:00am 9.7 3.9 -4.3 37 5.2 N 17 19 9 10 1021.2 1021.4 0.0
14/12:30am 10.2 5.1 -5.3 33 5.7 N 13 17 7 9 1021.3 1021.5 0.0
14/12:00am 10.2 5.9 -4.9 34 5.6 NNE 9 15 5 8 1021.9 1022.1 0.0
 
Date/Time
EST
Temp
°C
App
Temp
°C
Dew
Point
°C
Rel
Hum
%
Delta-T
°C
Wind Press
QNH
hPa
Press
MSL
hPa
Rain since
9am
mm
Dir  Spd
km/h
Gust
km/h
Spd
kts
Gust
kts
13/11:30pm 11.3 5.1 -4.8 32 6.1 WNW 19 28 10 15 1021.8 1021.9 0.0
13/11:00pm 12.5 5.4 -4.6 30 6.6 WNW 24 33 13 18 1021.9 1022.1 0.0
13/10:30pm 12.7 6.2 -2.7 34 6.2 WNW 22 30 12 16 1022.0 1022.2 0.0
13/10:00pm 11.4 6.0 -1.0 42 5.1 NW 17 19 9 10 1022.1 1022.3 0.0
13/09:30pm 12.2 7.2 -1.3 39 5.6 WNW 15 19 8 10 1022.2 1022.4 0.0
13/09:00pm 14.2 8.5 -0.6 36 6.3 WNW 19 26 10 14 1022.1 1022.3 0.0
13/08:30pm 13.9 7.8 0.5 40 5.9 NW 22 28 12 15 1022.0 1022.2 0.0
13/08:00pm 15.5 9.3 -0.3 34 6.9 WNW 22 32 12 17 1021.9 1022.1 0.0
13/07:45pm 15.8 8.5 0.0 34 6.9 WNW 28 35 15 19 1021.7 1021.8 0.0
13/07:30pm 15.4 10.6 0.4 36 6.6 NW 15 19 8 10 1021.5 1021.7 0.0
13/07:00pm 16.1 10.6 0.3 34 7.0 NW 19 28 10 15 1021.1 1021.3 0.0
13/06:30pm 15.8 11.0 -2.2 29 7.6 NNW 13 17 7 9 1021.4 1021.6 0.0
13/06:00pm 16.5 10.3 -3.0 26 8.1 WNW 20 28 11 15 1021.5 1021.7 0.0
13/05:30pm 17.3 8.8 -2.9 25 8.5 WNW 32 39 17 21 1021.1 1021.3 0.0
13/05:00pm 17.4 10.0 -3.4 24 8.6 WNW 26 33 14 18 1020.8 1021.0 0.0
13/04:40pm 17.8 9.5 -5.4 20 9.3 WNW 30 48 16 26 1020.6 1020.8 0.0
13/04:30pm 18.2 9.1 -7.2 17 9.8 WNW 33 46 18 25 1020.6 1020.8 0.0
13/04:00pm 20.0 10.0 -9.2 13 11.1 WNW 37 50 20 27 1020.1 1020.2 0.0
13/03:30pm 21.0 11.6 -11.7 10 11.9 WNW 33 50 18 27 1019.6 1019.8 0.0
13/03:27pm 21.3 12.1 -11.5 10 12.1 WNW 32 50 17 27 1019.6 1019.8 0.0
13/03:00pm 21.4 12.2 -4.6 17 11.0 N 35 50 19 27 1019.6 1019.8 0.0
13/02:30pm 20.4 12.0 -2.6 21 10.0 NW 32 43 17 23 1020.4 1020.6 0.0
13/02:00pm 20.8 12.2 -4.4 18 10.6 NNW 32 44 17 24 1020.5 1020.7 0.0
13/01:30pm 20.3 12.3 -5.5 17 10.6 NNW 28 33 15 18 1020.9 1021.1 0.0
13/01:00pm 21.0 12.8 -8.4 13 11.5 NW 28 35 15 19 1021.7 1021.8 0.0
13/12:30pm 19.9 12.8 -4.4 19 10.1 NW 24 30 13 16 1022.0 1022.2 0.0
13/12:00pm 19.1 13.3 -4.4 20 9.7 NW 17 26 9 14 1022.5 1022.7 0.0
13/11:30am 17.4 13.9 -1.3 28 8.1 WNW 7 9 4 5 1023.1 1023.3 0.0
13/11:00am 15.8 12.5 0.0 34 6.9 NW 7 11 4 6 1023.6 1023.8 0.0
13/10:30am 14.5 11.1 -0.4 36 6.4 NNW 7 9 4 5 1023.9 1024.1 0.0
13/10:00am 13.2 11.0 1.2 44 5.3 WNW 2 9 1 5 1024.4 1024.6 0.0
13/09:30am 11.4 8.4 1.1 49 4.5 WNW 6 9 3 5 1024.7 1024.9 0.0
13/09:00am 9.3 7.0 0.7 55 3.6 W 2 7 1 4 1024.9 1025.2 0.0
13/08:30am 7.0 4.7 0.7 64 2.6 WSW 2 7 1 4 1024.8 1025.1 0.0
13/08:00am 5.0 3.0 0.0 70 2.0 CALM 0 0 0 0 1024.8 1025.1 0.0
13/07:30am 2.1 -1.1 -0.5 83 1.0 S 6 7 3 4 1024.8 1025.1 0.0
13/07:00am -0.3 -2.5 -1.9 89 0.6 CALM 0 0 0 0 1024.8 1025.1 0.0
13/06:30am -2.1 -5.9 -3.5 90 0.4 S 7 11 4 6 1024.5 1024.7 0.0
13/06:00am -2.4 -5.6 -3.8 90 0.4 S 4 7 2 4 1023.9 1024.1 0.0
13/05:30am -1.6 -5.1 -2.6 93 0.3 S 6 7 3 4 1023.3 1023.6 0.0
13/05:00am -2.5 -6.4 -4.2 88 0.4 SE 7 9 4 5 1023.0 1023.2 0.0
13/04:30am -1.1 -5.1 -2.5 90 0.4 E 9 11 5 6 1022.7 1022.9 0.0
13/04:00am -2.7 -7.0 -4.9 85 0.6 ENE 9 11 5 6 1022.3 1022.5 0.0
13/03:30am -0.2 -2.4 -1.9 88 0.6 CALM 0 0 0 0 1021.9 1022.1 0.0
13/03:00am -0.5 -4.0 -2.9 84 0.8 NE 6 7 3 4 1021.4 1021.6 0.0
13/02:30am 1.2 -2.8 -1.9 80 1.1 NE 9 9 5 5 1021.3 1021.5 0.0
13/02:00am 1.4 -1.6 -1.7 80 1.1 NE 4 11 2 6 1021.8 1021.9 0.0
13/01:30am 1.7 -1.2 -1.2 81 1.1 NE 4 7 2 4 1021.9 1022.1 0.0
13/01:00am 1.6 -1.4 -2.0 77 1.3 NE 4 7 2 4 1021.9 1022.1 0.0
13/12:30am 1.3 -2.3 -2.3 77 1.3 ESE 7 9 4 5 1021.7 1021.8 0.0
13/12:00am 2.1 -0.3 -0.6 82 1.0 NNE 2 9 1 5 1021.0 1021.2 0.0
 
Date/Time
EST
Temp
°C
App
Temp
°C
Dew
Point
°C
Rel
Hum
%
Delta-T
°C
Wind Press
QNH
hPa
Press
MSL
hPa
Rain since
9am
mm
Dir  Spd
km/h
Gust
km/h
Spd
kts
Gust
kts
12/11:30pm 3.8 1.0 -0.6 73 1.7 E 4 7 2 4 1020.7 1020.9 0.0
12/11:00pm 2.6 -0.8 -1.7 73 1.6 NE 6 9 3 5 1021.3 1021.5 0.0
12/10:30pm 4.8 1.5 0.2 72 1.8 NNE 7 11 4 6 1021.1 1021.3 0.0
12/10:00pm 6.2 4.3 0.3 66 2.4 CALM 0 0 0 0 1020.8 1021.0 0.0
12/09:30pm 5.1 1.4 -0.1 69 2.1 SE 9 13 5 7 1020.9 1021.1 0.0
12/09:00pm 5.7 1.6 -0.1 66 2.3 NNW 11 13 6 7 1020.8 1021.0 0.0
12/08:30pm 5.8 2.7 0.0 66 2.3 ESE 6 7 3 4 1020.7 1020.9 0.0
12/08:00pm 5.8 2.0 -0.7 63 2.5 SE 9 13 5 7 1020.5 1020.7 0.0
12/07:30pm 7.7 4.0 0.0 58 3.1 E 9 13 5 7 1020.4 1020.6 0.0
12/07:00pm 11.2 7.6 0.6 48 4.5 W 9 11 5 6 1020.0 1020.1 0.0
12/06:30pm 12.6 9.1 1.0 45 5.1 WSW 9 13 5 7 1020.0 1020.1 0.0
12/06:00pm 13.4 9.9 1.1 43 5.4 WSW 9 15 5 8 1019.9 1020.0 0.0
12/05:30pm 14.5 8.5 1.1 40 6.0 WNW 22 33 12 18 1019.3 1019.5 0.0
12/05:00pm 15.3 8.2 1.1 38 6.4 WNW 28 41 15 22 1019.3 1019.5 0.0
12/04:30pm 16.1 10.1 1.0 36 6.8 WNW 22 35 12 19 1018.8 1018.9 0.0
12/04:18pm 16.0 8.7 0.2 34 7.0 NW 28 48 15 26 1018.5 1018.6 0.0
12/04:00pm 16.8 8.9 0.9 34 7.2 NW 32 41 17 22 1019.9 1020.0 0.0

Other formats

Comma delimited format used in spreadsheet applications
http://www.bom.gov.au/fwo/IDN60801/IDN60801.94926.axf

JavaScript Object Notation format (JSON) in row-major order
http://www.bom.gov.au/fwo/IDN60801/IDN60801.94926.json

Data quality

Most of these data are generated automatically and are frequently updated. Quality checks on data are not normally performed. It is possible for incorrect values to appear. Refer to information at About Latest Weather Observations and please check the disclaimer before using these data.